Crestwood, Missouri
Current Conditions -  °F | °C
As of 11:53 PM on Friday 24 Oct 2014 (Local Time) from KCPS Reporting Station
Clear Clear  
Wind Chill: 64°   Ceiling: Unl
Heat Index: 64°   Visibility: 10mi
Dew Point: 55°   Wind: 0mph
Humidity: 72%   Direction: NA
Pressure: 29.99"   Gusts: NA
Location:  38.5502°N, 90.379°W
Report Text: KCPS 250453Z AUTO 00000KT 10SM CLR 18/13 A2999 RMK AO2 SLP154 T01780128
Loading
Personal Weather Stations






























Interactive Weather Map
Tropical Storm Tracking
New forecast layout! Learn more

10-Day Weather Forecast

Advertisements
Track Severe Weather on mobile